createdAt,value
2022-10-06T00:02:22.318Z,100.00
2022-10-06T00:04:58.956Z,100.00
2022-10-06T00:07:49.555Z,100.00
2022-10-06T00:10:35.109Z,100.00
2022-10-06T00:13:19.308Z,100.00
2022-10-06T00:15:52.992Z,100.00
2022-10-06T00:18:25.039Z,100.00
2022-10-06T00:21:09.570Z,100.00
2022-10-06T00:23:59.008Z,100.00
2022-10-06T00:26:41.803Z,100.00
2022-10-06T00:29:15.039Z,100.00
2022-10-06T00:31:56.843Z,100.00
2022-10-06T00:34:27.798Z,100.00
2022-10-06T00:36:58.648Z,100.00
2022-10-06T00:39:32.099Z,100.00
2022-10-06T00:42:13.024Z,100.00
2022-10-06T00:44:51.090Z,100.00
2022-10-06T00:47:24.138Z,100.00
2022-10-06T00:50:12.456Z,100.00
2022-10-06T00:52:44.296Z,100.00
2022-10-06T00:55:26.313Z,100.00
2022-10-06T00:58:02.061Z,100.00
2022-10-06T01:00:34.582Z,100.00
2022-10-06T01:03:20.465Z,100.00
2022-10-06T01:05:51.054Z,100.00
2022-10-06T01:08:19.146Z,100.00
2022-10-06T01:10:45.479Z,100.00
2022-10-06T01:13:13.213Z,100.00
2022-10-06T01:15:44.589Z,100.00
2022-10-06T01:18:14.816Z,100.00
2022-10-06T01:20:50.114Z,100.00
2022-10-06T01:23:17.242Z,100.00
2022-10-06T01:25:44.643Z,100.00
2022-10-06T01:28:13.610Z,100.00
2022-10-06T01:30:53.189Z,100.00
2022-10-06T01:33:21.210Z,100.00
2022-10-06T01:35:50.483Z,100.00
2022-10-06T01:38:17.782Z,100.00
2022-10-06T01:40:44.913Z,100.00
2022-10-06T01:43:11.666Z,100.00
2022-10-06T01:45:38.854Z,100.00
2022-10-06T01:48:05.609Z,100.00
2022-10-06T01:50:31.972Z,100.00
2022-10-06T01:52:58.314Z,100.00
2022-10-06T01:55:25.748Z,100.00
2022-10-06T01:57:52.167Z,100.00
2022-10-06T02:00:19.127Z,100.00
2022-10-06T02:02:45.588Z,100.00
2022-10-06T02:05:12.177Z,100.00
2022-10-06T02:07:38.766Z,100.00
2022-10-06T02:10:06.544Z,100.00
2022-10-06T02:12:33.000Z,100.00
2022-10-06T02:14:59.442Z,100.00
2022-10-06T02:17:25.781Z,100.00
2022-10-06T02:19:52.403Z,100.00
2022-10-06T02:22:18.716Z,100.00
2022-10-06T02:24:45.044Z,100.00
2022-10-06T02:27:11.497Z,100.00
2022-10-06T02:29:37.827Z,100.00
2022-10-06T02:32:04.236Z,100.00
2022-10-06T02:34:30.596Z,100.00
2022-10-06T02:36:57.672Z,100.00
2022-10-06T02:39:24.006Z,100.00
2022-10-06T02:41:50.390Z,100.00
2022-10-06T02:44:16.769Z,100.00
2022-10-06T02:46:43.148Z,100.00
2022-10-06T02:49:09.541Z,100.00
2022-10-06T02:51:35.870Z,100.00
2022-10-06T02:54:02.283Z,100.00
2022-10-06T02:56:28.604Z,100.00
2022-10-06T02:58:57.180Z,100.00
2022-10-06T03:01:26.411Z,100.00
2022-10-06T03:03:53.345Z,100.00
2022-10-06T03:06:22.284Z,100.00
2022-10-06T03:08:50.093Z,100.00
2022-10-06T03:11:23.121Z,100.00
2022-10-06T03:13:51.428Z,100.00
2022-10-06T03:16:30.237Z,100.00
2022-10-06T03:18:56.947Z,100.00
2022-10-06T03:21:26.071Z,100.00
2022-10-06T03:23:54.348Z,100.00
2022-10-06T03:26:24.097Z,100.00
2022-10-06T03:28:50.544Z,100.00
2022-10-06T03:31:17.809Z,100.00
2022-10-06T03:33:44.249Z,100.00
2022-10-06T03:36:15.905Z,100.00
2022-10-06T03:38:42.981Z,100.00
2022-10-06T03:41:10.629Z,100.00
2022-10-06T03:43:38.132Z,100.00
2022-10-06T03:46:06.178Z,100.00
2022-10-06T03:48:34.825Z,100.00
2022-10-06T03:51:04.237Z,100.00
2022-10-06T03:53:32.155Z,100.00
2022-10-06T03:56:00.333Z,100.00
2022-10-06T03:58:29.007Z,100.00
2022-10-06T04:01:10.654Z,100.00
2022-10-06T04:03:37.262Z,100.00
2022-10-06T04:06:06.964Z,100.00
2022-10-06T04:08:35.000Z,100.00
2022-10-06T04:11:11.131Z,100.00
2022-10-06T04:13:39.354Z,100.00
2022-10-06T04:16:11.914Z,100.00
2022-10-06T04:18:38.606Z,100.00
2022-10-06T04:21:05.453Z,100.00
2022-10-06T04:23:32.221Z,100.00
2022-10-06T04:26:00.349Z,100.00
2022-10-06T04:28:26.903Z,100.00
2022-10-06T04:31:00.829Z,100.00
2022-10-06T04:33:28.425Z,100.00
2022-10-06T04:36:03.335Z,100.00
2022-10-06T04:38:33.107Z,100.00
2022-10-06T04:41:14.520Z,100.00
2022-10-06T04:43:41.582Z,100.00
2022-10-06T04:46:24.285Z,100.00
2022-10-06T04:48:56.135Z,100.00
2022-10-06T04:51:25.011Z,100.00
2022-10-06T04:53:51.925Z,100.00
2022-10-06T04:56:24.047Z,100.00
2022-10-06T04:58:52.627Z,100.00
2022-10-06T05:01:26.177Z,100.00
2022-10-06T05:03:58.204Z,100.00
2022-10-06T05:06:27.891Z,100.00
2022-10-06T05:08:57.140Z,100.00
2022-10-06T05:11:26.036Z,100.00
2022-10-06T05:13:57.515Z,100.00
2022-10-06T05:16:25.537Z,100.00
2022-10-06T05:18:52.055Z,100.00
2022-10-06T05:21:24.383Z,100.00
2022-10-06T05:23:51.156Z,100.00
2022-10-06T05:26:23.238Z,100.00
2022-10-06T05:28:50.369Z,100.00
2022-10-06T05:31:21.555Z,100.00
2022-10-06T05:33:48.729Z,100.00
2022-10-06T05:36:24.390Z,100.00
2022-10-06T05:38:50.724Z,100.00
2022-10-06T05:41:19.477Z,100.00
2022-10-06T05:43:45.900Z,100.00
2022-10-06T05:46:17.664Z,100.00
2022-10-06T05:48:48.725Z,100.00
2022-10-06T05:51:15.580Z,100.00
2022-10-06T05:53:42.618Z,100.00
2022-10-06T05:56:15.056Z,100.00
2022-10-06T05:58:43.748Z,100.00
2022-10-06T06:01:35.088Z,100.00
2022-10-06T06:04:04.740Z,100.00
2022-10-06T06:06:33.749Z,100.00
2022-10-06T06:09:14.394Z,100.00
2022-10-06T06:11:43.398Z,100.00
2022-10-06T06:14:12.064Z,100.00
2022-10-06T06:16:40.037Z,100.00
2022-10-06T06:19:07.915Z,100.00
2022-10-06T06:21:34.593Z,100.00
2022-10-06T06:24:02.211Z,100.00
2022-10-06T06:26:30.832Z,100.00
2022-10-06T06:29:07.645Z,100.00
2022-10-06T06:31:38.957Z,100.00
2022-10-06T06:34:07.038Z,100.00
2022-10-06T06:36:40.491Z,100.00
2022-10-06T06:39:09.145Z,100.00
2022-10-06T06:41:38.613Z,100.00
2022-10-06T06:44:11.020Z,100.00
2022-10-06T06:46:38.276Z,100.00
2022-10-06T06:49:05.996Z,100.00
2022-10-06T06:51:34.510Z,100.00
2022-10-06T06:54:02.499Z,100.00
2022-10-06T06:56:35.053Z,100.00
2022-10-06T06:59:03.661Z,100.00
2022-10-06T07:01:30.557Z,100.00
2022-10-06T07:04:00.988Z,100.00
2022-10-06T07:06:31.974Z,100.00
2022-10-06T07:08:59.862Z,100.00
2022-10-06T07:11:36.942Z,100.00
2022-10-06T07:14:09.996Z,100.00
2022-10-06T07:16:54.908Z,100.00
2022-10-06T07:19:57.514Z,100.00
2022-10-06T07:22:47.272Z,100.00
2022-10-06T07:25:26.345Z,100.00
2022-10-06T07:27:53.177Z,100.00
2022-10-06T07:30:23.042Z,100.00
2022-10-06T07:32:51.028Z,100.00
2022-10-06T07:35:20.214Z,100.00
2022-10-06T07:37:47.702Z,100.00
2022-10-06T07:40:14.844Z,100.00
2022-10-06T07:42:53.598Z,100.00
2022-10-06T07:45:38.735Z,100.00
2022-10-06T07:48:19.984Z,100.00
2022-10-06T07:50:49.085Z,100.00
2022-10-06T07:53:17.764Z,100.00
2022-10-06T07:55:46.326Z,100.00
2022-10-06T07:58:18.634Z,100.00
2022-10-06T08:00:46.714Z,100.00
2022-10-06T08:03:18.559Z,100.00
2022-10-06T08:05:50.124Z,100.00
2022-10-06T08:08:16.935Z,100.00
2022-10-06T08:10:53.673Z,100.00
2022-10-06T08:13:20.141Z,100.00
2022-10-06T08:15:49.932Z,100.00
2022-10-06T08:18:41.139Z,100.00
2022-10-06T08:21:11.418Z,100.00
2022-10-06T08:23:42.174Z,100.00
2022-10-06T08:26:10.202Z,100.00
2022-10-06T08:28:37.484Z,100.00
2022-10-06T08:31:11.598Z,100.00
2022-10-06T08:33:39.552Z,100.00
2022-10-06T08:36:08.606Z,100.00
2022-10-06T08:38:38.438Z,100.00
2022-10-06T08:41:24.057Z,100.00
2022-10-06T08:44:21.541Z,100.00
2022-10-06T08:47:12.762Z,99.79
2022-10-06T08:49:51.366Z,99.56
2022-10-06T08:52:20.504Z,97.76
2022-10-06T08:54:49.533Z,97.33
2022-10-06T08:57:37.806Z,96.84
2022-10-06T09:00:19.580Z,96.57
2022-10-06T09:02:49.910Z,94.54
2022-10-06T09:05:25.061Z,92.25
2022-10-06T09:08:13.461Z,92.43
2022-10-06T09:11:27.943Z,92.49
2022-10-06T09:14:02.977Z,93.07
2022-10-06T09:16:35.080Z,89.39
2022-10-06T09:19:18.076Z,88.52
2022-10-06T09:21:49.420Z,88.67
2022-10-06T09:24:25.299Z,87.01
2022-10-06T09:26:54.906Z,86.99
2022-10-06T09:29:21.660Z,87.91
2022-10-06T09:31:50.431Z,85.55
2022-10-06T09:34:38.518Z,84.63
2022-10-06T09:37:11.057Z,82.48
2022-10-06T09:39:45.050Z,83.62
2022-10-06T09:42:35.460Z,81.05
2022-10-06T09:45:16.854Z,77.96
2022-10-06T09:47:45.585Z,80.73
2022-10-06T09:50:21.481Z,79.48
2022-10-06T09:53:06.226Z,78.60
2022-10-06T09:55:38.393Z,77.19
2022-10-06T09:58:29.547Z,76.55
2022-10-06T10:01:00.015Z,75.10
2022-10-06T10:03:44.528Z,74.94
2022-10-06T10:06:29.672Z,75.66
2022-10-06T10:09:29.556Z,74.43
2022-10-06T10:12:29.824Z,72.78
2022-10-06T10:15:04.795Z,73.76
2022-10-06T10:17:52.638Z,72.70
2022-10-06T10:20:24.956Z,71.99
2022-10-06T10:22:52.930Z,72.07
2022-10-06T10:25:37.447Z,71.50
2022-10-06T10:28:17.400Z,71.33
2022-10-06T10:30:55.828Z,69.16
2022-10-06T10:33:46.123Z,70.22
2022-10-06T10:36:30.896Z,68.13
2022-10-06T10:38:58.109Z,67.55
2022-10-06T10:41:28.801Z,68.32
2022-10-06T10:44:10.819Z,69.09
2022-10-06T10:46:47.149Z,67.49
2022-10-06T10:49:19.676Z,65.67
2022-10-06T10:51:55.689Z,65.62
2022-10-06T10:54:36.615Z,65.77
2022-10-06T10:57:03.969Z,65.47
2022-10-06T10:59:33.330Z,61.76
2022-10-06T11:02:01.649Z,61.08
2022-10-06T11:04:28.182Z,64.19
2022-10-06T11:07:24.578Z,62.67
2022-10-06T11:10:02.809Z,61.52
2022-10-06T11:12:48.680Z,62.74
2022-10-06T11:15:33.725Z,61.96
2022-10-06T11:18:13.244Z,60.59
2022-10-06T11:20:57.758Z,60.60
2022-10-06T11:23:40.547Z,59.14
2022-10-06T11:26:35.872Z,59.77
2022-10-06T11:29:27.053Z,58.78
2022-10-06T11:32:16.762Z,57.68
2022-10-06T11:34:44.798Z,57.91
2022-10-06T11:37:34.961Z,59.15
2022-10-06T11:40:26.182Z,56.93
2022-10-06T11:43:05.994Z,58.14
2022-10-06T11:45:55.474Z,59.24
2022-10-06T11:48:26.689Z,60.58
2022-10-06T11:50:55.551Z,58.60
2022-10-06T11:53:38.877Z,61.16
2022-10-06T11:56:17.258Z,60.19
2022-10-06T11:58:55.994Z,60.89
2022-10-06T12:01:31.278Z,56.21
2022-10-06T12:04:08.203Z,57.80
2022-10-06T12:06:46.785Z,58.03
2022-10-06T12:09:46.124Z,56.93
2022-10-06T12:12:15.199Z,58.14
2022-10-06T12:16:55.316Z,58.54
2022-10-06T12:18:06.000Z,55.36
2022-10-06T12:20:49.887Z,55.54
2022-10-06T12:23:38.901Z,56.59
2022-10-06T12:26:30.570Z,58.38
2022-10-06T12:29:12.219Z,56.37
2022-10-06T12:31:46.242Z,55.76
2022-10-06T12:34:41.701Z,56.87
2022-10-06T12:37:29.247Z,56.09
2022-10-06T12:40:33.212Z,54.86
2022-10-06T12:43:14.785Z,55.00
2022-10-06T12:45:46.250Z,54.57
2022-10-06T12:48:31.124Z,56.63
2022-10-06T12:51:15.737Z,55.01
2022-10-06T12:54:21.192Z,53.31
2022-10-06T12:57:02.200Z,53.43
2022-10-06T12:59:34.786Z,55.59
2022-10-06T13:02:04.622Z,52.72
2022-10-06T13:04:35.390Z,53.47
2022-10-06T13:07:19.949Z,52.96
2022-10-06T13:09:48.528Z,54.18
2022-10-06T13:12:36.488Z,52.63
2022-10-06T13:15:20.753Z,52.78
2022-10-06T13:18:19.574Z,53.60
2022-10-06T13:20:50.162Z,53.00
2022-10-06T13:23:22.892Z,53.60
2022-10-06T13:25:54.468Z,52.81
2022-10-06T13:28:23.895Z,53.68
2022-10-06T13:31:22.707Z,52.15
2022-10-06T13:33:56.164Z,52.89
2022-10-06T13:36:23.560Z,52.10
2022-10-06T13:38:50.226Z,52.67
2022-10-06T13:41:47.253Z,52.04
2022-10-06T13:44:14.116Z,53.28
2022-10-06T13:46:53.254Z,51.34
2022-10-06T13:49:22.230Z,51.34
2022-10-06T13:51:51.590Z,51.29
2022-10-06T13:54:35.024Z,50.95
2022-10-06T13:57:01.353Z,51.12
2022-10-06T13:59:36.973Z,49.11
2022-10-06T14:02:18.228Z,49.53
2022-10-06T14:04:45.406Z,51.46
2022-10-06T14:07:14.059Z,50.96
2022-10-06T14:09:42.018Z,51.32
2022-10-06T14:12:14.584Z,52.43
2022-10-06T14:14:49.181Z,51.38
2022-10-06T14:17:27.991Z,50.95
2022-10-06T14:19:54.551Z,50.93
2022-10-06T14:22:38.182Z,51.70
2022-10-06T14:25:11.616Z,51.78
2022-10-06T14:27:38.013Z,50.28
2022-10-06T14:30:05.117Z,49.25
2022-10-06T14:32:31.458Z,49.45
2022-10-06T14:34:57.762Z,49.75
2022-10-06T14:37:24.101Z,50.86
2022-10-06T14:39:50.853Z,51.64
2022-10-06T14:42:17.373Z,50.86
2022-10-06T14:44:44.731Z,50.52
2022-10-06T14:47:11.069Z,51.10
2022-10-06T14:49:40.577Z,51.47
2022-10-06T14:52:10.311Z,52.40
2022-10-06T14:54:36.668Z,52.38
2022-10-06T14:57:03.051Z,54.25
2022-10-06T14:59:29.377Z,53.79
2022-10-06T15:01:55.727Z,54.72
2022-10-06T15:04:25.185Z,55.08
2022-10-06T15:07:09.996Z,55.62
2022-10-06T15:09:36.430Z,55.11
2022-10-06T15:12:03.207Z,55.73
2022-10-06T15:14:29.795Z,57.44
2022-10-06T15:16:59.898Z,58.60
2022-10-06T15:19:26.434Z,58.20
2022-10-06T15:21:52.819Z,56.58
2022-10-06T15:24:19.640Z,54.92
2022-10-06T15:27:05.753Z,53.82
2022-10-06T15:29:34.620Z,52.51
2022-10-06T15:32:02.566Z,54.87
2022-10-06T15:34:31.880Z,54.45
2022-10-06T15:36:59.109Z,55.62
2022-10-06T15:39:34.629Z,56.74
2022-10-06T15:42:00.984Z,57.83
2022-10-06T15:44:31.405Z,58.48
2022-10-06T15:46:58.097Z,55.98
2022-10-06T15:49:26.913Z,58.15
2022-10-06T15:51:59.501Z,56.65
2022-10-06T15:54:28.009Z,56.35
2022-10-06T15:56:56.801Z,56.79
2022-10-06T15:59:24.981Z,57.86
2022-10-06T16:01:57.062Z,58.97
2022-10-06T16:04:35.034Z,59.35
2022-10-06T16:07:02.653Z,60.26
2022-10-06T16:09:38.138Z,61.18
2022-10-06T16:12:08.845Z,62.11
2022-10-06T16:14:38.201Z,61.56
2022-10-06T16:17:05.822Z,61.86
2022-10-06T16:19:38.387Z,62.29
2022-10-06T16:22:07.043Z,62.42
2022-10-06T16:24:33.389Z,63.55
2022-10-06T16:27:00.154Z,64.57
2022-10-06T16:29:27.929Z,65.34
2022-10-06T16:31:54.384Z,65.89
2022-10-06T16:34:21.021Z,66.19
2022-10-06T16:36:47.336Z,68.11
2022-10-06T16:39:19.447Z,67.44
2022-10-06T16:41:46.515Z,68.22
2022-10-06T16:44:12.966Z,67.51
2022-10-06T16:46:39.884Z,68.90
2022-10-06T16:49:10.851Z,69.75
2022-10-06T16:51:39.872Z,69.94
2022-10-06T16:54:08.880Z,69.80
2022-10-06T16:56:36.333Z,70.50
2022-10-06T16:59:06.483Z,70.89
2022-10-06T17:01:35.493Z,71.04
2022-10-06T17:04:06.937Z,72.16
2022-10-06T17:06:41.577Z,72.69
2022-10-06T17:09:11.813Z,73.33
2022-10-06T17:11:38.388Z,74.50
2022-10-06T17:14:05.373Z,74.92
2022-10-06T17:16:34.586Z,76.83
2022-10-06T17:19:01.490Z,77.61
2022-10-06T17:21:57.445Z,79.05
2022-10-06T17:24:15.168Z,80.19
2022-10-06T17:26:43.631Z,80.45
2022-10-06T17:29:18.568Z,81.76
2022-10-06T17:31:45.756Z,83.62
2022-10-06T17:34:20.771Z,83.64
2022-10-06T17:36:50.504Z,85.19
2022-10-06T17:39:19.210Z,86.84
2022-10-06T17:41:46.923Z,86.58
2022-10-06T17:44:18.726Z,87.09
2022-10-06T17:46:45.492Z,87.14
2022-10-06T17:49:14.851Z,88.28
2022-10-06T17:51:42.793Z,90.21
2022-10-06T17:54:15.922Z,91.47
2022-10-06T17:56:43.853Z,91.62
2022-10-06T17:59:22.762Z,92.82
2022-10-06T18:01:51.165Z,93.81
2022-10-06T18:04:18.529Z,95.48
2022-10-06T18:06:46.354Z,96.82
2022-10-06T18:09:13.604Z,97.85
2022-10-06T18:11:41.944Z,98.83
2022-10-06T18:14:19.820Z,100.00
2022-10-06T18:16:56.282Z,100.00
2022-10-06T18:19:26.424Z,100.00
2022-10-06T18:21:56.229Z,100.00
2022-10-06T18:24:25.050Z,100.00
2022-10-06T18:26:54.131Z,100.00
2022-10-06T18:29:23.110Z,100.00
2022-10-06T18:31:50.954Z,100.00
2022-10-06T18:36:01.755Z,100.00
2022-10-06T18:37:04.415Z,100.00
2022-10-06T18:39:31.919Z,100.00
2022-10-06T18:42:02.282Z,100.00
2022-10-06T18:44:47.126Z,100.00
2022-10-06T18:47:31.943Z,100.00
2022-10-06T18:49:58.286Z,100.00
2022-10-06T18:52:24.613Z,100.00
2022-10-06T18:54:50.930Z,100.00
2022-10-06T18:57:17.355Z,100.00
2022-10-06T18:59:43.820Z,100.00
2022-10-06T19:02:10.905Z,100.00
2022-10-06T19:04:39.019Z,100.00
2022-10-06T19:07:05.620Z,100.00
2022-10-06T19:09:31.915Z,100.00
2022-10-06T19:11:58.759Z,100.00
2022-10-06T19:14:31.349Z,100.00
2022-10-06T19:17:00.114Z,100.00
2022-10-06T19:19:28.060Z,100.00
2022-10-06T19:21:59.944Z,100.00
2022-10-06T19:24:28.540Z,100.00
2022-10-06T19:26:56.315Z,100.00
2022-10-06T19:29:23.884Z,100.00
2022-10-06T19:31:52.498Z,100.00
2022-10-06T19:34:20.120Z,100.00
2022-10-06T19:36:50.816Z,100.00
2022-10-06T19:39:17.787Z,100.00
2022-10-06T19:42:02.980Z,100.00
2022-10-06T19:44:29.313Z,100.00
2022-10-06T19:46:55.620Z,100.00
2022-10-06T19:49:23.148Z,100.00
2022-10-06T19:51:50.063Z,100.00
2022-10-06T19:54:18.150Z,100.00
2022-10-06T19:56:46.032Z,100.00
2022-10-06T19:59:17.822Z,100.00
2022-10-06T20:01:45.050Z,100.00
2022-10-06T20:04:12.349Z,100.00
2022-10-06T20:06:41.238Z,100.00
2022-10-06T20:09:12.974Z,100.00
2022-10-06T20:11:43.726Z,100.00
2022-10-06T20:14:16.992Z,100.00
2022-10-06T20:16:47.930Z,100.00
2022-10-06T20:19:14.569Z,100.00
2022-10-06T20:21:41.296Z,100.00
2022-10-06T20:24:12.614Z,100.00
2022-10-06T20:26:41.432Z,100.00
2022-10-06T20:29:11.489Z,100.00
2022-10-06T20:31:43.715Z,100.00
2022-10-06T20:34:13.630Z,100.00
2022-10-06T20:36:40.052Z,100.00
2022-10-06T20:39:34.241Z,100.00
2022-10-06T20:42:01.108Z,100.00
2022-10-06T20:44:27.498Z,100.00
2022-10-06T20:46:54.447Z,100.00
2022-10-06T20:49:21.185Z,100.00
2022-10-06T20:51:52.077Z,100.00
2022-10-06T20:54:24.844Z,100.00
2022-10-06T20:56:52.446Z,100.00
2022-10-06T20:59:20.325Z,100.00
2022-10-06T21:01:47.964Z,100.00
2022-10-06T21:04:15.041Z,100.00
2022-10-06T21:06:41.395Z,100.00
2022-10-06T21:09:12.634Z,100.00
2022-10-06T21:11:38.995Z,100.00
2022-10-06T21:14:07.372Z,100.00
2022-10-06T21:16:35.224Z,100.00
2022-10-06T21:19:03.799Z,100.00
2022-10-06T21:21:30.708Z,100.00
2022-10-06T21:23:57.077Z,100.00
2022-10-06T21:26:25.862Z,100.00
2022-10-06T21:28:52.599Z,100.00
2022-10-06T21:31:23.652Z,100.00
2022-10-06T21:33:51.320Z,100.00
2022-10-06T21:36:20.107Z,100.00
2022-10-06T21:38:48.844Z,100.00
2022-10-06T21:41:31.932Z,100.00
2022-10-06T21:44:11.752Z,100.00
2022-10-06T21:46:45.674Z,100.00
2022-10-06T21:49:14.213Z,100.00
2022-10-06T21:51:42.619Z,100.00
2022-10-06T21:54:12.498Z,100.00
2022-10-06T21:56:39.845Z,100.00
2022-10-06T21:59:07.011Z,100.00
2022-10-06T22:01:38.497Z,100.00
2022-10-06T22:04:05.591Z,100.00
2022-10-06T22:06:33.909Z,100.00
2022-10-06T22:09:00.872Z,100.00
2022-10-06T22:11:34.682Z,100.00
2022-10-06T22:14:03.897Z,100.00
2022-10-06T22:16:32.742Z,100.00
2022-10-06T22:19:01.744Z,100.00
2022-10-06T22:21:30.667Z,100.00
2022-10-06T22:23:59.452Z,100.00
2022-10-06T22:26:27.448Z,100.00
2022-10-06T22:28:57.410Z,100.00
2022-10-06T22:31:26.307Z,100.00
2022-10-06T22:33:58.699Z,100.00
2022-10-06T22:36:26.647Z,100.00
2022-10-06T22:38:53.913Z,100.00
2022-10-06T22:41:21.051Z,100.00
2022-10-06T22:43:47.611Z,100.00
2022-10-06T22:46:14.167Z,100.00
2022-10-06T22:48:41.657Z,100.00
2022-10-06T22:51:08.392Z,100.00
2022-10-06T22:53:34.845Z,100.00
2022-10-06T22:56:02.656Z,100.00
2022-10-06T22:58:29.057Z,100.00
2022-10-06T23:00:58.595Z,100.00
2022-10-06T23:03:25.128Z,100.00
2022-10-06T23:05:56.354Z,100.00
2022-10-06T23:08:23.550Z,100.00
2022-10-06T23:10:50.276Z,100.00
2022-10-06T23:13:16.711Z,100.00
2022-10-06T23:15:43.462Z,100.00
2022-10-06T23:18:10.263Z,100.00
2022-10-06T23:20:36.598Z,100.00
2022-10-06T23:23:02.934Z,100.00
2022-10-06T23:25:29.405Z,100.00
2022-10-06T23:27:55.707Z,100.00
2022-10-06T23:30:22.022Z,100.00
2022-10-06T23:32:48.349Z,100.00
2022-10-06T23:35:14.715Z,100.00
2022-10-06T23:37:40.995Z,100.00
2022-10-06T23:40:07.940Z,100.00
2022-10-06T23:42:34.243Z,100.00
2022-10-06T23:45:00.583Z,100.00
2022-10-06T23:47:26.943Z,100.00
2022-10-06T23:49:54.131Z,100.00
2022-10-06T23:52:20.444Z,100.00
2022-10-06T23:54:46.768Z,100.00
2022-10-06T23:57:13.069Z,100.00
2022-10-06T23:59:39.361Z,100.00
